Clay, Texas
Current Conditions -  °F | °C
As of 12:15 PM on Sunday 25 Jan 2015 (Local Time) from K11R Reporting Station
Clear Clear  
Wind Chill: 65°   Ceiling: Unl
Heat Index: 65°   Visibility: 10mi
Dew Point: 42°   Wind: 14mph
Humidity: 44%   Direction: 350°N
Pressure: 30.06"   Gusts: NA
Location:  30.39°N, 96.34°W
Report Text: K11R 251815Z AUTO 35012KT 10SM CLR 18/06 A3006 RMK AO2 T01810058
Loading
Personal Weather Stations






























Interactive Weather Map New forecast layout! Learn more

10-Day Weather Forecast

Advertisements
Track Severe Weather on mobile